createdAt,value
2023-03-22T00:02:30.640Z,11.14
2023-03-22T00:05:00.456Z,11.02
2023-03-22T00:07:31.654Z,11.12
2023-03-22T00:10:01.522Z,11.15
2023-03-22T00:12:31.714Z,10.95
2023-03-22T00:15:04.037Z,10.80
2023-03-22T00:17:33.688Z,10.69
2023-03-22T00:20:06.262Z,10.55
2023-03-22T00:22:36.212Z,10.65
2023-03-22T00:25:06.260Z,10.28
2023-03-22T00:27:35.929Z,10.44
2023-03-22T00:30:09.688Z,10.41
2023-03-22T00:32:39.635Z,10.39
2023-03-22T00:35:10.114Z,10.77
2023-03-22T00:37:40.825Z,10.49
2023-03-22T00:40:14.875Z,10.80
2023-03-22T00:42:45.417Z,10.83
2023-03-22T00:45:18.199Z,10.69
2023-03-22T00:47:47.890Z,10.84
2023-03-22T00:50:17.620Z,10.84
2023-03-22T00:52:47.300Z,10.44
2023-03-22T00:55:17.192Z,10.44
2023-03-22T00:57:48.230Z,10.87
2023-03-22T01:00:21.594Z,10.91
2023-03-22T01:02:53.429Z,10.96
2023-03-22T01:05:24.582Z,10.84
2023-03-22T01:07:55.280Z,11.20
2023-03-22T01:10:25.137Z,11.23
2023-03-22T01:12:56.862Z,11.26
2023-03-22T01:15:29.252Z,11.21
2023-03-22T01:17:59.483Z,11.31
2023-03-22T01:20:29.380Z,11.35
2023-03-22T01:22:59.555Z,11.18
2023-03-22T01:25:29.446Z,11.15
2023-03-22T01:27:59.247Z,11.31
2023-03-22T01:30:31.762Z,11.54
2023-03-22T01:33:01.447Z,11.50
2023-03-22T01:35:33.320Z,11.05
2023-03-22T01:38:03.837Z,11.30
2023-03-22T01:40:36.494Z,11.42
2023-03-22T01:43:06.505Z,11.48
2023-03-22T01:45:41.864Z,11.16
2023-03-22T01:48:18.696Z,11.05
2023-03-22T01:50:56.241Z,11.38
2023-03-22T01:53:28.765Z,11.49
2023-03-22T01:56:00.739Z,11.41
2023-03-22T01:58:36.710Z,11.45
2023-03-22T02:01:13.912Z,11.20
2023-03-22T02:03:53.580Z,11.46
2023-03-22T02:06:24.690Z,11.25
2023-03-22T02:09:01.571Z,11.39
2023-03-22T02:11:35.589Z,11.49
2023-03-22T02:14:36.422Z,11.48
2023-03-22T02:17:37.797Z,11.48
2023-03-22T02:20:49.303Z,11.62
2023-03-22T02:23:46.561Z,11.41
2023-03-22T02:26:47.603Z,11.34
2023-03-22T02:29:26.482Z,11.65
2023-03-22T02:32:29.073Z,11.58
2023-03-22T02:35:24.061Z,11.38
2023-03-22T02:38:23.445Z,11.55
2023-03-22T02:41:03.894Z,11.71
2023-03-22T02:43:40.712Z,11.80
2023-03-22T02:46:14.218Z,11.78
2023-03-22T02:48:51.450Z,11.67
2023-03-22T02:51:25.895Z,11.56
2023-03-22T02:54:00.314Z,11.54
2023-03-22T02:56:39.460Z,11.80
2023-03-22T02:59:14.596Z,11.79
2023-03-22T03:01:48.903Z,11.80
2023-03-22T03:04:22.213Z,11.64
2023-03-22T03:06:55.916Z,11.74
2023-03-22T03:09:27.660Z,11.70
2023-03-22T03:12:00.111Z,11.73
2023-03-22T03:14:32.440Z,11.87
2023-03-22T03:17:16.082Z,11.75
2023-03-22T03:19:58.386Z,11.41
2023-03-22T03:22:40.689Z,11.59
2023-03-22T03:25:18.378Z,11.80
2023-03-22T03:27:57.615Z,11.69
2023-03-22T03:30:34.122Z,11.69
2023-03-22T03:33:09.397Z,11.57
2023-03-22T03:35:43.791Z,11.26
2023-03-22T03:38:18.792Z,11.65
2023-03-22T03:40:51.711Z,11.47
2023-03-22T03:43:25.588Z,11.63
2023-03-22T03:45:55.903Z,11.66
2023-03-22T03:48:29.074Z,11.57
2023-03-22T03:51:00.872Z,11.69
2023-03-22T03:53:31.400Z,11.57
2023-03-22T03:56:01.279Z,11.52
2023-03-22T03:58:40.158Z,11.20
2023-03-22T04:01:10.553Z,11.13
2023-03-22T04:03:57.890Z,11.41
2023-03-22T04:06:51.012Z,11.51
2023-03-22T04:09:27.449Z,11.40
2023-03-22T04:12:02.466Z,11.27
2023-03-22T04:14:35.031Z,11.31
2023-03-22T04:17:12.305Z,11.01
2023-03-22T04:19:42.343Z,11.20
2023-03-22T04:22:14.707Z,11.26
2023-03-22T04:24:50.090Z,11.26
2023-03-22T04:27:23.872Z,11.24
2023-03-22T04:30:05.067Z,11.21
2023-03-22T04:32:53.259Z,11.19
2023-03-22T04:35:29.444Z,11.17
2023-03-22T04:37:59.431Z,10.83
2023-03-22T04:40:31.762Z,11.00
2023-03-22T04:43:15.909Z,10.56
2023-03-22T04:45:55.174Z,11.33
2023-03-22T04:48:29.685Z,10.84
2023-03-22T04:51:04.344Z,11.36
2023-03-22T04:53:41.128Z,11.30
2023-03-22T04:56:14.580Z,10.94
2023-03-22T04:58:46.871Z,11.22
2023-03-22T05:01:21.081Z,11.25
2023-03-22T05:03:58.946Z,11.06
2023-03-22T05:06:32.780Z,11.19
2023-03-22T05:09:12.581Z,11.24
2023-03-22T05:11:43.043Z,11.01
2023-03-22T05:14:31.282Z,11.21
2023-03-22T05:17:03.882Z,11.28
2023-03-22T05:19:37.490Z,11.34
2023-03-22T05:22:08.256Z,11.33
2023-03-22T05:24:46.231Z,11.32
2023-03-22T05:27:31.752Z,11.43
2023-03-22T05:30:15.677Z,11.20
2023-03-22T05:32:56.278Z,11.05
2023-03-22T05:35:26.133Z,11.32
2023-03-22T05:37:58.182Z,10.94
2023-03-22T05:40:30.983Z,10.84
2023-03-22T05:43:00.757Z,11.33
2023-03-22T05:45:32.596Z,10.93
2023-03-22T05:48:16.998Z,11.27
2023-03-22T05:50:46.818Z,11.40
2023-03-22T05:53:17.267Z,11.43
2023-03-22T05:56:10.102Z,11.31
2023-03-22T05:58:41.635Z,11.27
2023-03-22T06:01:16.497Z,11.30
2023-03-22T06:03:52.284Z,11.12
2023-03-22T06:06:29.316Z,10.89
2023-03-22T06:09:17.223Z,11.02
2023-03-22T06:11:50.288Z,11.26
2023-03-22T06:14:20.431Z,11.49
2023-03-22T06:17:08.894Z,11.17
2023-03-22T06:19:41.348Z,11.62
2023-03-22T06:22:12.891Z,11.63
2023-03-22T06:24:43.342Z,11.74
2023-03-22T06:27:17.977Z,11.46
2023-03-22T06:29:51.058Z,11.90
2023-03-22T06:32:26.985Z,11.85
2023-03-22T06:35:00.811Z,12.11
2023-03-22T06:37:31.465Z,11.62
2023-03-22T06:40:01.180Z,11.69
2023-03-22T06:42:33.854Z,12.25
2023-03-22T06:45:14.723Z,12.03
2023-03-22T06:47:46.825Z,12.38
2023-03-22T06:50:39.674Z,12.22
2023-03-22T06:53:20.977Z,12.20
2023-03-22T06:55:55.221Z,11.87
2023-03-22T06:58:27.157Z,12.11
2023-03-22T07:01:00.668Z,12.28
2023-03-22T07:03:32.086Z,12.42
2023-03-22T07:06:11.992Z,12.39
2023-03-22T07:08:45.406Z,12.14
2023-03-22T07:11:18.264Z,12.65
2023-03-22T07:13:52.646Z,12.75
2023-03-22T07:16:24.494Z,12.83
2023-03-22T07:18:57.315Z,12.49
2023-03-22T07:21:29.822Z,12.78
2023-03-22T07:24:03.418Z,12.42
2023-03-22T07:26:35.372Z,13.02
2023-03-22T07:29:06.291Z,13.10
2023-03-22T07:31:38.206Z,13.26
2023-03-22T07:34:12.272Z,13.28
2023-03-22T07:37:08.238Z,13.28
2023-03-22T07:39:38.254Z,13.29
2023-03-22T07:42:09.822Z,13.09
2023-03-22T07:44:47.307Z,12.94
2023-03-22T07:47:41.039Z,13.19
2023-03-22T07:50:31.478Z,13.30
2023-03-22T07:53:06.359Z,13.21
2023-03-22T07:55:36.104Z,13.26
2023-03-22T07:58:06.209Z,12.98
2023-03-22T08:00:36.354Z,13.16
2023-03-22T08:03:25.516Z,13.21
2023-03-22T08:06:06.992Z,13.16
2023-03-22T08:08:41.003Z,13.28
2023-03-22T08:11:12.436Z,13.02
2023-03-22T08:13:42.560Z,13.14
2023-03-22T08:16:13.905Z,12.74
2023-03-22T08:18:45.384Z,13.05
2023-03-22T08:21:15.773Z,13.38
2023-03-22T08:23:49.823Z,13.21
2023-03-22T08:26:31.943Z,12.64
2023-03-22T08:29:12.212Z,12.95
2023-03-22T08:31:42.148Z,12.63
2023-03-22T08:34:13.355Z,12.99
2023-03-22T08:36:43.406Z,12.82
2023-03-22T08:39:16.148Z,13.05
2023-03-22T08:41:52.688Z,13.20
2023-03-22T08:44:22.726Z,13.19
2023-03-22T08:46:52.557Z,12.86
2023-03-22T08:49:22.373Z,12.76
2023-03-22T08:52:00.677Z,13.17
2023-03-22T08:54:56.406Z,13.25
2023-03-22T08:57:44.722Z,13.30
2023-03-22T09:00:25.111Z,13.03
2023-03-22T09:03:07.764Z,13.48
2023-03-22T09:05:37.865Z,13.77
2023-03-22T09:08:08.940Z,13.78
2023-03-22T09:10:48.029Z,13.79
2023-03-22T09:13:17.790Z,13.86
2023-03-22T09:15:54.772Z,13.94
2023-03-22T09:18:28.098Z,13.83
2023-03-22T09:21:01.237Z,13.97
2023-03-22T09:23:38.566Z,13.87
2023-03-22T09:26:12.203Z,13.71
2023-03-22T09:28:42.063Z,13.80
2023-03-22T09:31:13.283Z,14.17
2023-03-22T09:33:44.618Z,14.22
2023-03-22T09:36:14.765Z,14.16
2023-03-22T09:38:45.505Z,14.26
2023-03-22T09:41:23.503Z,14.48
2023-03-22T09:43:57.135Z,14.07
2023-03-22T09:46:33.943Z,14.17
2023-03-22T09:49:07.087Z,13.87
2023-03-22T09:51:43.181Z,13.85
2023-03-22T09:54:18.628Z,14.53
2023-03-22T09:56:56.875Z,14.49
2023-03-22T09:59:36.356Z,14.48
2023-03-22T10:02:20.381Z,14.45
2023-03-22T10:04:58.421Z,14.69
2023-03-22T10:07:34.492Z,14.51
2023-03-22T10:10:10.742Z,14.71
2023-03-22T10:12:48.928Z,15.08
2023-03-22T10:15:21.792Z,15.06
2023-03-22T10:17:56.041Z,15.06
2023-03-22T10:20:34.646Z,15.21
2023-03-22T10:23:07.209Z,15.10
2023-03-22T10:25:40.062Z,14.89
2023-03-22T10:28:19.384Z,14.89
2023-03-22T10:30:53.608Z,14.98
2023-03-22T10:33:31.788Z,14.74
2023-03-22T10:36:02.842Z,14.76
2023-03-22T10:38:33.449Z,15.23
2023-03-22T10:41:04.924Z,15.37
2023-03-22T10:43:39.856Z,15.40
2023-03-22T10:46:15.181Z,15.28
2023-03-22T10:48:47.961Z,15.21
2023-03-22T10:51:27.364Z,15.37
2023-03-22T10:53:58.665Z,15.54
2023-03-22T10:56:28.666Z,15.53
2023-03-22T10:59:01.142Z,15.39
2023-03-22T11:01:32.939Z,15.12
2023-03-22T11:04:10.782Z,15.10
2023-03-22T11:06:44.348Z,15.62
2023-03-22T11:09:16.009Z,15.32
2023-03-22T11:11:53.576Z,15.84
2023-03-22T11:14:30.751Z,15.52
2023-03-22T11:17:02.729Z,15.54
2023-03-22T11:19:37.334Z,15.42
2023-03-22T11:22:11.305Z,15.92
2023-03-22T11:24:41.085Z,15.72
2023-03-22T11:27:30.202Z,15.69
2023-03-22T11:30:20.141Z,15.73
2023-03-22T11:32:50.879Z,15.56
2023-03-22T11:35:25.742Z,15.41
2023-03-22T11:37:57.098Z,15.59
2023-03-22T11:40:29.325Z,15.62
2023-03-22T11:43:05.551Z,15.59
2023-03-22T11:45:40.594Z,15.69
2023-03-22T11:48:16.157Z,15.90
2023-03-22T11:50:47.376Z,16.02
2023-03-22T11:53:20.002Z,16.10
2023-03-22T11:55:53.016Z,15.69
2023-03-22T11:58:30.537Z,16.18
2023-03-22T12:01:04.957Z,15.63
2023-03-22T12:03:39.813Z,15.69
2023-03-22T12:06:23.373Z,15.98
2023-03-22T12:08:58.959Z,15.68
2023-03-22T12:11:33.494Z,16.17
2023-03-22T12:14:09.569Z,15.88
2023-03-22T12:16:48.529Z,16.17
2023-03-22T12:19:28.830Z,16.14
2023-03-22T12:21:59.843Z,16.05
2023-03-22T12:24:33.098Z,16.09
2023-03-22T12:27:10.542Z,16.15
2023-03-22T12:29:53.813Z,16.27
2023-03-22T12:32:31.175Z,16.15
2023-03-22T12:35:18.070Z,15.63
2023-03-22T12:37:51.640Z,16.14
2023-03-22T12:40:28.642Z,16.28
2023-03-22T12:43:05.077Z,16.14
2023-03-22T12:45:41.914Z,16.05
2023-03-22T12:48:21.705Z,16.26
2023-03-22T12:50:56.076Z,16.20
2023-03-22T12:53:30.943Z,16.13
2023-03-22T12:56:01.346Z,15.99
2023-03-22T12:58:31.150Z,16.08
2023-03-22T13:01:14.560Z,15.99
2023-03-22T13:03:52.286Z,15.98
2023-03-22T13:06:37.669Z,16.02
2023-03-22T13:09:17.106Z,16.39
2023-03-22T13:11:48.901Z,16.17
2023-03-22T13:14:48.602Z,16.18
2023-03-22T13:17:18.841Z,16.25
2023-03-22T13:20:01.366Z,16.21
2023-03-22T13:22:33.343Z,16.33
2023-03-22T13:25:34.169Z,16.41
2023-03-22T13:28:06.857Z,16.29
2023-03-22T13:30:39.478Z,16.16
2023-03-22T13:33:21.555Z,16.16
2023-03-22T13:35:57.499Z,16.16
2023-03-22T13:38:29.956Z,15.72
2023-03-22T13:41:04.042Z,15.96
2023-03-22T13:43:46.321Z,15.87
2023-03-22T13:46:32.451Z,15.71
2023-03-22T13:49:28.059Z,15.86
2023-03-22T13:52:04.043Z,15.54
2023-03-22T13:54:40.749Z,15.00
2023-03-22T13:57:19.354Z,15.40
2023-03-22T14:00:14.409Z,15.46
2023-03-22T14:02:46.236Z,15.02
2023-03-22T14:05:19.218Z,14.96
2023-03-22T14:07:56.333Z,15.15
2023-03-22T14:10:29.888Z,14.85
2023-03-22T14:13:02.935Z,14.99
2023-03-22T14:15:37.253Z,15.13
2023-03-22T14:18:15.872Z,14.80
2023-03-22T14:20:46.950Z,15.14
2023-03-22T14:54:18.814Z,15.39
2023-03-22T14:56:49.473Z,15.31
2023-03-22T14:59:22.641Z,15.47
2023-03-22T15:01:56.059Z,15.52
2023-03-22T15:04:27.462Z,15.61
2023-03-22T15:07:00.243Z,15.44
2023-03-22T15:09:32.806Z,15.53
2023-03-22T15:12:05.100Z,15.31
2023-03-22T15:14:38.192Z,15.42
2023-03-22T15:17:10.358Z,14.97
2023-03-22T15:19:42.019Z,15.23
2023-03-22T15:22:16.494Z,15.51
2023-03-22T15:24:56.402Z,15.48
2023-03-22T15:27:26.663Z,15.33
2023-03-22T15:29:56.660Z,15.10
2023-03-22T15:32:28.274Z,15.48
2023-03-22T15:34:58.956Z,15.48
2023-03-22T15:37:33.565Z,15.50
2023-03-22T15:40:09.362Z,15.26
2023-03-22T15:42:43.001Z,15.18
2023-03-22T15:45:16.695Z,15.13
2023-03-22T15:47:48.617Z,15.19
2023-03-22T15:50:21.546Z,14.88
2023-03-22T15:52:52.700Z,15.00
2023-03-22T15:55:34.380Z,15.01
2023-03-22T15:58:08.598Z,14.97
2023-03-22T16:00:42.000Z,15.13
2023-03-22T16:03:17.448Z,14.93
2023-03-22T16:05:49.456Z,15.23
2023-03-22T16:08:19.889Z,15.10
2023-03-22T16:10:52.285Z,14.60
2023-03-22T16:13:24.134Z,14.90
2023-03-22T16:15:56.430Z,15.10
2023-03-22T16:18:26.299Z,15.09
2023-03-22T16:20:56.418Z,14.94
2023-03-22T16:23:27.594Z,14.89
2023-03-22T16:26:00.333Z,14.91
2023-03-22T16:28:30.116Z,14.89
2023-03-22T16:31:01.858Z,14.41
2023-03-22T16:33:33.901Z,14.94
2023-03-22T16:36:10.223Z,15.01
2023-03-22T16:38:40.470Z,14.55
2023-03-22T16:41:21.758Z,15.05
2023-03-22T16:43:52.405Z,14.78
2023-03-22T16:46:23.191Z,14.67
2023-03-22T16:48:53.026Z,14.80
2023-03-22T16:51:25.421Z,14.58
2023-03-22T16:53:56.086Z,14.66
2023-03-22T16:56:32.744Z,14.51
2023-03-22T16:59:02.586Z,14.52
2023-03-22T17:01:37.283Z,14.17
2023-03-22T17:04:07.229Z,14.37
2023-03-22T17:06:37.496Z,14.48
2023-03-22T17:09:07.480Z,14.16
2023-03-22T17:11:40.810Z,14.49
2023-03-22T17:14:10.637Z,14.29
2023-03-22T17:16:41.231Z,14.30
2023-03-22T17:19:11.024Z,13.92
2023-03-22T17:21:41.010Z,14.45
2023-03-22T17:24:11.127Z,13.81
2023-03-22T17:26:43.605Z,14.14
2023-03-22T17:29:13.454Z,14.00
2023-03-22T17:31:43.339Z,14.32
2023-03-22T17:34:17.265Z,14.22
2023-03-22T17:36:47.278Z,13.83
2023-03-22T17:39:36.074Z,14.31
2023-03-22T17:42:12.760Z,14.28
2023-03-22T17:44:43.378Z,14.38
2023-03-22T17:49:47.115Z,14.11
2023-03-22T17:52:19.667Z,14.31
2023-03-22T17:55:13.871Z,14.23
2023-03-22T17:58:15.177Z,14.23
2023-03-22T18:03:02.299Z,14.32
2023-03-22T18:05:34.136Z,13.92
2023-03-22T18:08:26.239Z,14.19
2023-03-22T18:10:54.688Z,14.24
2023-03-22T18:13:27.480Z,13.92
2023-03-22T18:15:57.281Z,14.18
2023-03-22T18:18:27.097Z,13.81
2023-03-22T18:20:57.813Z,13.65
2023-03-22T18:23:28.036Z,14.07
2023-03-22T18:26:01.869Z,14.07
2023-03-22T18:28:36.314Z,13.96
2023-03-22T18:31:06.766Z,13.98
2023-03-22T18:33:38.096Z,14.03
2023-03-22T18:36:09.828Z,14.03
2023-03-22T18:39:18.474Z,13.73
2023-03-22T18:41:44.858Z,13.78
2023-03-22T18:44:19.381Z,13.74
2023-03-22T18:46:49.830Z,14.08
2023-03-22T18:49:19.790Z,13.79
2023-03-22T18:52:23.378Z,14.01
2023-03-22T18:54:40.940Z,14.00
2023-03-22T18:57:13.408Z,13.99
2023-03-22T18:59:45.904Z,14.04
2023-03-22T19:02:20.618Z,14.02
2023-03-22T19:04:54.823Z,13.82
2023-03-22T19:07:48.062Z,13.96
2023-03-22T19:10:15.949Z,13.86
2023-03-22T19:12:48.466Z,14.07
2023-03-22T19:15:47.078Z,13.90
2023-03-22T19:18:12.561Z,13.86
2023-03-22T19:20:54.352Z,14.00
2023-03-22T19:23:33.469Z,13.80
2023-03-22T19:26:05.357Z,14.01
2023-03-22T19:28:36.104Z,13.81
2023-03-22T19:31:10.244Z,13.94
2023-03-22T19:36:15.539Z,13.72
2023-03-22T19:38:45.754Z,14.20
2023-03-22T19:41:42.964Z,14.20
2023-03-22T19:44:06.429Z,13.83
2023-03-22T19:46:39.046Z,14.22
2023-03-22T19:49:09.052Z,14.21
2023-03-22T19:51:39.202Z,14.20
2023-03-22T19:54:28.021Z,13.66
2023-03-22T19:56:58.819Z,13.98
2023-03-22T19:59:31.937Z,13.82
2023-03-22T20:02:04.655Z,14.04
2023-03-22T20:04:34.708Z,13.76
2023-03-22T20:07:04.558Z,13.86
2023-03-22T20:09:34.839Z,13.95
2023-03-22T20:12:04.681Z,13.80
2023-03-22T20:14:34.704Z,13.80
2023-03-22T20:17:10.557Z,13.75
2023-03-22T20:19:42.885Z,13.84
2023-03-22T20:22:12.688Z,13.69
2023-03-22T20:24:43.156Z,13.47
2023-03-22T20:27:13.376Z,13.84
2023-03-22T20:29:43.256Z,13.82
2023-03-22T20:32:15.843Z,13.73
2023-03-22T20:34:46.204Z,13.43
2023-03-22T20:37:17.320Z,13.31
2023-03-22T20:39:47.485Z,13.81
2023-03-22T20:42:17.967Z,13.73
2023-03-22T20:44:48.067Z,13.83
2023-03-22T20:47:20.555Z,13.62
2023-03-22T20:49:50.775Z,13.85
2023-03-22T20:52:20.611Z,13.82
2023-03-22T20:54:50.542Z,13.72
2023-03-22T20:57:20.790Z,13.76
2023-03-22T20:59:50.705Z,13.79
2023-03-22T21:02:23.866Z,13.73
2023-03-22T21:04:54.396Z,13.79
2023-03-22T21:07:24.234Z,13.79
2023-03-22T21:09:54.097Z,13.59
2023-03-22T21:12:23.993Z,13.74
2023-03-22T21:14:54.133Z,13.53
2023-03-22T21:17:28.269Z,13.76
2023-03-22T21:19:58.260Z,13.58
2023-03-22T21:22:28.113Z,13.79
2023-03-22T21:24:57.925Z,13.67
2023-03-22T21:27:30.639Z,13.78
2023-03-22T21:30:00.497Z,13.83
2023-03-22T21:32:33.115Z,13.88
2023-03-22T21:35:02.945Z,13.81
2023-03-22T21:37:32.965Z,13.54
2023-03-22T21:40:07.010Z,13.89
2023-03-22T21:42:46.617Z,13.77
2023-03-22T21:45:16.403Z,14.07
2023-03-22T21:47:53.775Z,13.81
2023-03-22T21:50:24.031Z,13.88
2023-03-22T21:52:53.824Z,13.95
2023-03-22T21:55:25.255Z,13.64
2023-03-22T21:57:55.551Z,13.94
2023-03-22T22:00:25.771Z,13.95
2023-03-22T22:02:58.670Z,13.81
2023-03-22T22:05:28.927Z,13.99
2023-03-22T22:07:58.805Z,13.90
2023-03-22T22:10:29.773Z,13.99
2023-03-22T22:13:00.818Z,13.98
2023-03-22T22:15:31.209Z,13.70
2023-03-22T22:18:05.844Z,13.79
2023-03-22T22:20:35.947Z,14.06
2023-03-22T22:23:06.209Z,13.94
2023-03-22T22:25:37.991Z,13.95
2023-03-22T22:28:08.284Z,13.67
2023-03-22T22:30:38.091Z,13.99
2023-03-22T22:33:10.732Z,14.03
2023-03-22T22:35:40.840Z,13.99
2023-03-22T22:38:11.368Z,13.74
2023-03-22T22:40:45.930Z,13.93
2023-03-22T22:43:16.600Z,14.03
2023-03-22T22:45:47.304Z,13.64
2023-03-22T22:48:19.678Z,14.08
2023-03-22T22:50:49.891Z,13.99
2023-03-22T22:53:19.814Z,13.88
2023-03-22T22:55:49.648Z,13.88
2023-03-22T22:58:19.511Z,13.90
2023-03-22T23:00:49.282Z,13.52
2023-03-22T23:03:21.936Z,13.79
2023-03-22T23:05:51.856Z,13.18
2023-03-22T23:08:23.155Z,13.24
2023-03-22T23:10:56.650Z,13.46
2023-03-22T23:13:27.709Z,13.49
2023-03-22T23:15:59.091Z,13.22
2023-03-22T23:18:32.199Z,13.51
2023-03-22T23:21:01.985Z,13.15
2023-03-22T23:23:31.766Z,12.95
2023-03-22T23:26:04.385Z,13.28
2023-03-22T23:28:36.983Z,13.03
2023-03-22T23:31:13.130Z,12.84
2023-03-22T23:33:46.608Z,13.11
2023-03-22T23:36:22.185Z,13.00
2023-03-22T23:38:54.154Z,13.33
2023-03-22T23:41:25.620Z,13.07
2023-03-22T23:43:56.079Z,13.14
2023-03-22T23:46:28.002Z,13.17
2023-03-22T23:49:00.638Z,13.04
2023-03-22T23:51:30.895Z,12.92
2023-03-22T23:54:02.626Z,12.99
2023-03-22T23:56:33.495Z,12.70
2023-03-22T23:59:04.251Z,12.91
